Time;durP1;ratioP1;P1;durP2;ratioP2;P2;SDS_P1;SDS_P2;PMS_P1;PMS_P2;Temp;Humidity;BMP_temperature;BMP_pressure;BME280_temperature;BME280_humidity;BME280_pressure;Samples;Min_cycle;Max_cycle;Signal;HPM_P1;HPM_P2
2022/08/10 00:02:28;;;;;;;4.18;2.10;;;;;;;18.08;62.42;102085.72;5073404;28;20057;-84
2022/08/10 00:04:55;;;;;;;2.33;1.50;;;;;;;18.01;62.76;102084.94;5084253;28;20067;-84
2022/08/10 00:07:22;;;;;;;3.40;2.20;;;;;;;17.98;63.16;102083.22;5083343;28;20031;-87
2022/08/10 00:09:48;;;;;;;3.25;1.98;;;;;;;17.99;63.46;102079.69;5048878;28;20750;-86
2022/08/10 00:12:15;;;;;;;2.55;1.85;;;;;;;17.95;64.22;102085.94;5065486;28;20067;-86
2022/08/10 00:14:44;;;;;;;3.40;2.05;;;;;;;17.93;64.49;102084.22;5082079;28;20044;-86
2022/08/10 00:17:10;;;;;;;2.90;1.63;;;;;;;17.91;64.07;102091.28;5072526;28;20541;-85
2022/08/10 00:19:37;;;;;;;4.35;1.73;;;;;;;17.88;64.26;102093.97;5084280;28;20486;-84
2022/08/10 00:22:04;;;;;;;1.88;1.30;;;;;;;17.82;64.46;102095.81;5054267;28;20039;-84
2022/08/10 00:24:41;;;;;;;2.88;1.90;;;;;;;17.80;65.26;102091.47;5072555;28;20044;-84
2022/08/10 00:27:07;;;;;;;3.28;1.42;;;;;;;17.76;64.95;102090.63;5066607;28;20118;-84
2022/08/10 00:29:34;;;;;;;4.07;1.50;;;;;;;17.71;65.37;102086.31;5038236;28;20044;-84
2022/08/10 00:32:01;;;;;;;1.10;1.10;;;;;;;17.69;65.85;102083.66;5058521;28;20090;-85
2022/08/10 00:34:35;;;;;;;1.33;1.23;;;;;;;17.63;65.87;102082.00;5056764;28;20040;-84
2022/08/10 00:37:02;;;;;;;1.00;1.00;;;;;;;17.59;65.58;102085.59;5061929;28;20390;-83
2022/08/10 00:39:30;;;;;;;1.85;1.40;;;;;;;17.51;66.68;102072.47;5054204;28;20044;-86
2022/08/10 00:41:57;;;;;;;3.08;1.70;;;;;;;17.50;66.49;102077.78;5053129;28;20050;-84
2022/08/10 00:44:23;;;;;;;2.88;1.42;;;;;;;17.47;66.70;102072.53;5074543;28;20031;-87
2022/08/10 00:46:55;;;;;;;6.28;1.60;;;;;;;17.41;66.67;102083.22;5051880;28;20321;-83
2022/08/10 00:49:21;;;;;;;1.73;1.48;;;;;;;17.37;66.97;102074.44;5021930;28;20899;-85
2022/08/10 00:51:48;;;;;;;3.42;1.73;;;;;;;17.35;67.17;102068.28;5027198;28;20553;-85
2022/08/10 00:54:15;;;;;;;1.63;1.25;;;;;;;17.30;67.19;102065.72;5035879;28;20048;-86
2022/08/10 00:56:41;;;;;;;1.48;1.38;;;;;;;17.23;67.61;102072.00;5067982;28;20032;-87
2022/08/10 00:59:08;;;;;;;2.75;1.20;;;;;;;17.22;67.84;102059.66;5072799;28;20049;-87
2022/08/10 01:01:35;;;;;;;1.45;1.42;;;;;;;17.19;68.10;102063.25;5054119;28;20179;-88
2022/08/10 01:04:04;;;;;;;1.08;1.08;;;;;;;17.17;68.28;102064.16;5060967;28;20561;-88
2022/08/10 01:07:02;;;;;;;2.78;1.13;;;;;;;17.14;68.42;102062.44;5036460;28;20108;-84
2022/08/10 01:09:40;;;;;;;2.50;1.48;;;;;;;17.08;68.73;102067.81;5028404;28;20155;-86
2022/08/10 01:12:30;;;;;;;2.38;1.23;;;;;;;17.11;69.29;102064.25;5027238;28;20045;-85
2022/08/10 01:15:05;;;;;;;1.35;1.33;;;;;;;17.10;68.93;102060.69;5049142;28;20123;-86
2022/08/10 01:17:46;;;;;;;1.77;1.33;;;;;;;17.06;68.96;102058.13;5050075;28;20047;-86
2022/08/10 01:21:09;;;;;;;1.67;1.58;;;;;;;17.06;69.43;102061.66;5042252;28;21306;-85
2022/08/10 01:23:54;;;;;;;1.50;1.40;;;;;;;17.01;69.14;102056.44;5030367;28;20044;-85
2022/08/10 01:26:43;;;;;;;4.53;1.30;;;;;;;17.02;69.53;102054.66;5062704;28;20060;-84
2022/08/10 01:29:53;;;;;;;3.85;1.38;;;;;;;16.99;69.97;102057.34;5027216;28;20099;-85
2022/08/10 01:32:47;;;;;;;4.78;1.30;;;;;;;16.95;70.05;102053.00;5079749;28;20052;-84
2022/08/10 01:35:35;;;;;;;3.60;1.40;;;;;;;16.91;70.17;102043.31;5060612;28;20036;-87
2022/08/10 01:38:19;;;;;;;2.03;1.25;;;;;;;16.89;70.51;102050.41;5058045;28;20049;-86
2022/08/10 01:40:56;;;;;;;1.50;1.40;;;;;;;16.84;70.57;102048.69;5042234;28;20114;-85
2022/08/10 01:43:28;;;;;;;5.93;1.63;;;;;;;16.85;70.51;102052.19;5044858;28;20041;-85
2022/08/10 01:45:57;;;;;;;1.50;1.27;;;;;;;16.83;70.67;102048.69;5076622;28;20455;-85
2022/08/10 01:48:40;;;;;;;3.00;1.35;;;;;;;16.80;71.20;102046.09;5044938;28;20818;-84
2022/08/10 01:51:17;;;;;;;6.47;1.53;;;;;;;16.77;71.51;102043.50;5048714;28;20060;-85
2022/08/10 01:53:51;;;;;;;1.73;1.63;;;;;;;16.77;71.77;102048.78;5046601;28;20048;-85
2022/08/10 01:56:22;;;;;;;2.13;1.38;;;;;;;16.77;70.90;102047.00;5043473;28;20072;-85
2022/08/10 01:58:56;;;;;;;6.13;1.77;;;;;;;16.74;71.62;102044.41;5043508;28;20041;-86
2022/08/10 02:01:27;;;;;;;3.50;1.15;;;;;;;16.75;71.77;102043.53;5057619;28;20045;-87
2022/08/10 02:04:04;;;;;;;1.92;1.75;;;;;;;16.73;71.84;102029.44;5025051;28;20055;-86
2022/08/10 02:06:34;;;;;;;4.70;1.80;;;;;;;16.73;71.60;102040.00;5043352;28;20044;-85
2022/08/10 02:09:03;;;;;;;2.50;1.85;;;;;;;16.74;71.92;102035.56;5058702;28;20040;-87
2022/08/10 02:11:30;;;;;;;5.45;3.10;;;;;;;16.69;72.73;102039.16;5058164;28;20187;-84
2022/08/10 02:13:59;;;;;;;3.85;2.35;;;;;;;16.67;72.25;102037.44;5042483;28;20041;-86
2022/08/10 02:16:27;;;;;;;1.75;1.40;;;;;;;16.64;72.54;102046.28;5062546;28;20051;-86
2022/08/10 02:18:56;;;;;;;3.50;1.88;;;;;;;16.63;72.49;102044.50;5041282;28;20130;-86
2022/08/10 02:21:25;;;;;;;2.45;1.60;;;;;;;16.61;72.69;102043.69;5076843;28;20123;-88
2022/08/10 02:23:54;;;;;;;3.15;1.70;;;;;;;16.61;73.16;102043.69;5076338;28;20139;-85
2022/08/10 02:26:22;;;;;;;2.05;1.50;;;;;;;16.58;72.81;102046.34;5092791;28;20040;-85
2022/08/10 02:29:03;;;;;;;4.57;2.00;;;;;;;16.55;73.31;102049.03;5066379;28;20385;-87
2022/08/10 02:31:30;;;;;;;4.55;2.58;;;;;;;16.52;73.80;102049.94;5053422;28;20052;-86
2022/08/10 02:33:58;;;;;;;2.00;1.88;;;;;;;16.52;73.32;102057.00;5062632;28;20074;-84
2022/08/10 02:36:33;;;;;;;2.88;1.63;;;;;;;16.48;73.71;102050.88;5081132;28;20051;-84
2022/08/10 02:39:04;;;;;;;1.98;1.88;;;;;;;16.47;73.86;102057.03;5066582;28;20044;-84
2022/08/10 02:41:56;;;;;;;7.30;2.22;;;;;;;16.41;74.30;102051.81;5089576;28;20032;-85
2022/08/10 02:44:51;;;;;;;3.65;2.33;;;;;;;16.37;74.55;102055.38;5101512;28;20032;-88
2022/08/10 02:47:33;;;;;;;2.20;1.92;;;;;;;16.33;74.78;102056.31;5065444;28;20063;-86
2022/08/10 02:50:33;;;;;;;1.98;1.80;;;;;;;16.28;75.42;102061.66;5081376;28;20063;-83
2022/08/10 02:53:10;;;;;;;4.60;1.88;;;;;;;16.29;74.83;102066.03;5086738;28;20054;-83
2022/08/10 02:55:46;;;;;;;2.70;2.42;;;;;;;16.24;75.06;102061.69;5064255;28;20044;-87
2022/08/10 02:58:35;;;;;;;4.35;2.03;;;;;;;16.21;75.77;102054.69;5053666;28;20049;-84
2022/08/10 03:01:10;;;;;;;9.05;1.88;;;;;;;16.17;75.77;102053.81;5101118;28;20051;-88
2022/08/10 03:04:11;;;;;;;3.23;1.87;;;;;;;16.16;75.89;102056.50;5084641;28;20040;-87
2022/08/10 03:06:45;;;;;;;9.88;2.50;;;;;;;16.11;75.72;102058.31;5071547;28;20286;-85
2022/08/10 03:09:14;;;;;;;;;;;;;;;16.09;77.42;102058.31;5065201;28;20051;-84
2022/08/10 03:11:43;;;;;;;4.10;2.60;;;;;;;16.06;76.37;102057.47;5052176;28;19973;-83
2022/08/10 03:14:13;;;;;;;1.95;1.83;;;;;;;16.03;76.79;102063.66;5059890;28;20052;-85
2022/08/10 03:16:45;;;;;;;2.53;2.20;;;;;;;16.02;77.16;102052.22;5078548;28;20106;-83
2022/08/10 03:19:14;;;;;;;4.38;2.33;;;;;;;16.02;77.16;102049.59;5086455;28;20048;-84
2022/08/10 03:21:43;;;;;;;3.70;1.85;;;;;;;16.02;77.27;102046.03;5052694;28;20060;-86
2022/08/10 03:24:10;;;;;;;4.13;1.67;;;;;;;15.99;77.22;102043.44;5063632;28;20053;-83
2022/08/10 03:26:38;;;;;;;3.03;1.80;;;;;;;15.94;77.10;102045.25;5065702;28;20554;-83
2022/08/10 03:29:05;;;;;;;2.20;1.95;;;;;;;15.90;78.25;102046.19;5050457;28;20055;-85
2022/08/10 03:31:33;;;;;;;2.72;2.03;;;;;;;15.89;77.95;102045.28;5056016;28;20048;-83
2022/08/10 03:34:06;;;;;;;1.95;1.60;;;;;;;15.86;78.13;102035.63;5049472;28;20045;-86
2022/08/10 03:36:32;;;;;;;3.15;2.05;;;;;;;15.83;78.05;102034.78;5062133;28;20778;-86
2022/08/10 03:39:00;;;;;;;2.55;2.28;;;;;;;15.79;78.14;102033.91;5045431;28;20065;-86
2022/08/10 03:41:33;;;;;;;4.32;1.98;;;;;;;15.78;78.26;102033.94;5043990;28;20052;-85
2022/08/10 03:44:03;;;;;;;4.70;2.88;;;;;;;15.74;78.86;102033.06;5029567;28;20052;-84
2022/08/10 03:46:34;;;;;;;3.65;1.77;;;;;;;15.76;78.37;102035.69;5053054;28;20044;-87
2022/08/10 03:49:04;;;;;;;5.82;2.75;;;;;;;15.73;78.50;102038.38;5045292;28;20046;-84
2022/08/10 03:51:33;;;;;;;5.97;2.10;;;;;;;15.68;78.96;102034.00;5045741;28;20042;-84
2022/08/10 03:54:02;;;;;;;2.53;1.90;;;;;;;15.66;78.73;102029.63;5034271;28;20044;-86
2022/08/10 03:56:30;;;;;;;3.72;2.38;;;;;;;15.61;79.06;102034.94;5064173;28;20044;-86
2022/08/10 03:58:57;;;;;;;2.17;2.08;;;;;;;15.57;79.40;102029.69;5046734;28;20072;-86
2022/08/10 04:01:24;;;;;;;2.40;2.20;;;;;;;15.54;79.98;102033.25;5048883;28;21900;-85
2022/08/10 04:03:51;;;;;;;2.42;2.22;;;;;;;15.48;80.26;102028.00;5036589;28;20051;-87
2022/08/10 04:06:19;;;;;;;3.22;2.92;;;;;;;15.48;80.43;102035.91;5047056;28;20045;-86
2022/08/10 04:08:49;;;;;;;2.00;1.88;;;;;;;15.47;80.38;102040.31;5047658;28;20048;-83
2022/08/10 04:11:15;;;;;;;3.03;2.10;;;;;;;15.45;80.60;102047.38;5055596;28;20139;-85
2022/08/10 04:13:42;;;;;;;2.55;2.20;;;;;;;15.44;81.08;102039.47;5067435;28;20122;-86
2022/08/10 04:16:08;;;;;;;5.32;2.17;;;;;;;15.44;80.70;102042.97;5050922;28;20458;-84
2022/08/10 04:18:35;;;;;;;6.35;2.58;;;;;;;15.45;80.89;102046.47;5035894;28;20060;-84
2022/08/10 04:21:18;;;;;;;3.22;1.88;;;;;;;15.45;81.16;102039.44;5076198;28;20055;-84
2022/08/10 04:23:49;;;;;;;4.30;2.72;;;;;;;15.46;80.95;102049.13;5076927;28;20046;-86
2022/08/10 04:26:17;;;;;;;5.72;2.70;;;;;;;15.49;80.79;102043.81;5058920;28;20247;-85
2022/08/10 04:28:44;;;;;;;2.53;2.33;;;;;;;15.49;80.99;102051.75;5085093;28;20036;-84
2022/08/10 04:31:16;;;;;;;4.47;3.28;;;;;;;15.53;80.30;102053.47;5056813;28;20054;-86
2022/08/10 04:33:48;;;;;;;3.47;2.42;;;;;;;15.55;80.30;102058.72;5073675;28;20043;-85
2022/08/10 04:36:17;;;;;;;2.47;2.17;;;;;;;15.56;80.21;102055.19;5068235;28;20040;-84
2022/08/10 04:38:46;;;;;;;4.50;1.73;;;;;;;15.57;80.03;102056.97;5054225;28;20051;-88
2022/08/10 04:41:13;;;;;;;5.30;2.63;;;;;;;15.63;79.89;102063.94;5090364;28;20039;-88
2022/08/10 04:43:40;;;;;;;5.90;2.38;;;;;;;15.66;80.00;102067.44;5091097;28;20023;-86
2022/08/10 04:46:07;;;;;;;5.18;2.80;;;;;;;15.71;79.45;102070.94;5074806;28;20052;-89
2022/08/10 04:48:33;;;;;;;3.17;2.53;;;;;;;15.75;78.98;102068.25;5098011;28;20059;-87
2022/08/10 04:51:00;;;;;;;3.33;2.35;;;;;;;15.81;78.86;102070.88;5082142;28;20036;-85
2022/08/10 04:53:27;;;;;;;5.90;3.00;;;;;;;15.88;78.77;102073.47;5102787;27;20763;-88
2022/08/10 04:55:54;;;;;;;8.73;2.30;;;;;;;15.96;78.28;102070.75;5087708;28;20047;-83
2022/08/10 04:58:21;;;;;;;4.88;3.45;;;;;;;16.02;77.98;102075.09;5070524;28;20036;-84
2022/08/10 05:00:47;;;;;;;3.20;2.80;;;;;;;16.04;77.79;102076.84;5062689;28;20484;-82
2022/08/10 05:03:14;;;;;;;6.40;3.08;;;;;;;16.12;77.57;102075.91;5074735;28;20048;-85
2022/08/10 05:05:41;;;;;;;5.68;3.10;;;;;;;16.17;77.44;102076.75;5087579;28;20046;-85
2022/08/10 05:08:07;;;;;;;6.18;2.30;;;;;;;16.22;76.91;102072.28;5085517;28;20047;-83
2022/08/10 05:10:34;;;;;;;4.20;3.03;;;;;;;16.24;76.75;102078.41;5086526;28;20097;-85
2022/08/10 05:13:04;;;;;;;2.72;2.45;;;;;;;16.29;76.66;102078.38;5051461;28;20047;-85
2022/08/10 05:15:32;;;;;;;3.00;2.67;;;;;;;16.33;76.25;102074.81;5069388;28;20056;-85
2022/08/10 05:18:08;;;;;;;4.90;2.50;;;;;;;16.33;75.66;102075.69;5068980;28;20074;-84
2022/08/10 05:20:35;;;;;;;8.57;3.03;;;;;;;16.33;75.70;102086.25;5066819;28;20060;-85
2022/08/10 05:23:01;;;;;;;6.57;2.55;;;;;;;16.33;75.90;102082.75;5087973;28;20052;-84
2022/08/10 05:25:31;;;;;;;15.18;6.82;;;;;;;16.36;75.67;102077.41;5051147;28;20040;-86
2022/08/10 05:28:00;;;;;;;3.45;2.85;;;;;;;16.37;75.38;102079.19;5067690;28;20479;-84
2022/08/10 05:30:28;;;;;;;3.00;2.80;;;;;;;16.38;75.24;102080.94;5074575;28;20653;-87
2022/08/10 05:32:54;;;;;;;4.15;2.80;;;;;;;16.41;75.32;102085.31;5095571;28;20086;-85
2022/08/10 05:35:25;;;;;;;6.65;2.50;;;;;;;16.44;75.22;102086.16;5084364;28;20036;-85
2022/08/10 05:38:02;;;;;;;11.40;4.47;;;;;;;16.44;74.66;102082.63;5073552;28;20114;-85
2022/08/10 05:40:29;;;;;;;9.48;3.10;;;;;;;16.46;74.33;102079.06;5085532;28;20155;-85
2022/08/10 05:42:56;;;;;;;6.50;2.35;;;;;;;16.45;74.29;102090.56;5051165;28;20052;-85
2022/08/10 05:45:27;;;;;;;4.65;2.70;;;;;;;16.47;74.13;102082.63;5068455;28;20059;-85
2022/08/10 05:47:54;;;;;;;14.32;3.00;;;;;;;16.51;74.23;102081.69;5102222;27;20052;-84
2022/08/10 05:50:27;;;;;;;7.20;3.38;;;;;;;16.53;73.67;102091.34;5079914;28;20059;-85
2022/08/10 05:52:54;;;;;;;4.82;2.65;;;;;;;16.54;73.55;102084.28;5069870;28;20054;-84
2022/08/10 05:55:23;;;;;;;11.80;3.30;;;;;;;16.60;72.75;102088.66;5083619;28;20044;-85
2022/08/10 05:57:51;;;;;;;4.25;2.72;;;;;;;16.62;72.41;102087.72;5071107;28;20730;-84
2022/08/10 06:00:20;;;;;;;2.80;2.28;;;;;;;16.64;72.33;102088.56;5071908;28;20785;-84
2022/08/10 06:02:53;;;;;;;3.33;2.40;;;;;;;16.66;72.21;102085.91;5072353;28;20059;-86
2022/08/10 06:05:25;;;;;;;2.38;2.17;;;;;;;16.73;72.14;102092.88;5082451;28;20044;-84
2022/08/10 06:08:02;;;;;;;7.00;2.78;;;;;;;16.83;71.44;102093.63;5082262;28;20402;-86
2022/08/10 06:10:33;;;;;;;2.92;2.65;;;;;;;16.93;71.15;102097.09;5054190;28;20040;-87
2022/08/10 06:15:49;;;;;;;3.67;2.70;;;;;;;17.13;70.58;102092.44;5090934;28;20421;-84
2022/08/10 06:18:19;;;;;;;4.93;3.25;;;;;;;17.20;70.28;102094.06;5054816;28;20059;-85
2022/08/10 06:20:47;;;;;;;6.22;2.28;;;;;;;17.31;70.27;102098.34;5103812;27;20081;-86
2022/08/10 06:23:17;;;;;;;5.30;2.55;;;;;;;17.41;69.75;102093.81;5076148;28;20052;-85
2022/08/10 06:25:46;;;;;;;3.55;2.60;;;;;;;17.50;69.18;102093.69;5076270;28;20410;-85
2022/08/10 06:28:16;;;;;;;8.93;2.90;;;;;;;17.59;68.94;102093.53;5096545;28;20044;-87
2022/08/10 06:30:46;;;;;;;5.70;2.63;;;;;;;17.65;68.47;102097.84;5093392;28;20095;-88
2022/08/10 06:33:14;;;;;;;9.32;3.35;;;;;;;17.68;67.74;102100.47;5113847;28;20046;-84
2022/08/10 06:35:41;;;;;;;5.53;2.47;;;;;;;17.75;67.24;102101.25;5092493;28;20039;-84
2022/08/10 06:38:10;;;;;;;5.20;2.78;;;;;;;17.82;67.13;102105.53;5102316;28;20052;-87
2022/08/10 06:40:44;;;;;;;6.70;2.35;;;;;;;17.91;66.01;102112.47;5083879;28;20036;-88
2022/08/10 06:43:15;;;;;;;4.53;2.47;;;;;;;17.96;65.83;102110.66;5067518;28;20054;-83
2022/08/10 06:45:52;;;;;;;10.40;3.33;;;;;;;17.96;65.57;102108.84;5074251;28;20048;-86
2022/08/10 06:48:31;;;;;;;6.32;3.40;;;;;;;17.99;65.78;102107.94;5077488;28;20040;-85
2022/08/10 06:51:02;;;;;;;3.95;2.50;;;;;;;18.08;65.40;102104.25;5070620;28;20102;-86
2022/08/10 06:53:51;;;;;;;7.43;3.05;;;;;;;18.18;64.97;102109.38;5072654;28;20507;-86
2022/08/10 06:56:28;;;;;;;10.18;2.40;;;;;;;18.34;63.75;102098.50;5070651;28;20077;-85
2022/08/10 06:59:09;;;;;;;7.72;2.95;;;;;;;18.44;63.68;102099.22;5087451;28;20105;-84
2022/08/10 07:01:39;;;;;;;7.45;2.63;;;;;;;18.55;63.04;102110.50;5074461;28;20142;-82
2022/08/10 07:04:34;;;;;;;3.53;2.20;;;;;;;18.77;62.33;102108.31;5057439;28;20447;-86
2022/08/10 07:07:06;;;;;;;8.05;3.20;;;;;;;19.15;61.12;102101.34;5065507;28;20055;-88
2022/08/10 07:09:36;;;;;;;6.28;2.70;;;;;;;19.51;60.33;102097.88;5076358;28;20047;-87
2022/08/10 07:12:06;;;;;;;5.47;2.95;;;;;;;19.98;58.97;102100.31;5085252;28;20113;-86
2022/08/10 07:14:44;;;;;;;9.45;3.10;;;;;;;20.44;57.64;102095.56;5076331;28;20044;-84
2022/08/10 07:17:17;;;;;;;6.72;2.65;;;;;;;20.95;56.10;102103.03;5090928;28;20133;-88
2022/08/10 07:19:48;;;;;;;9.33;2.67;;;;;;;21.43;54.24;102096.25;5065648;28;20093;-84
2022/08/10 07:23:10;;;;;;;7.35;3.38;;;;;;;21.78;52.75;102102.28;5062363;28;20048;-88
2022/08/10 07:25:42;;;;;;;3.15;2.33;;;;;;;22.24;51.60;102098.94;4973439;28;20049;-87
2022/08/10 07:28:09;;;;;;;2.72;2.38;;;;;;;22.67;51.23;102093.91;4991918;28;20077;-86
2022/08/10 07:30:39;;;;;;;5.07;3.50;;;;;;;23.00;49.52;102091.75;5039000;28;20730;-85
2022/08/10 07:33:11;;;;;;;4.72;3.20;;;;;;;23.44;48.28;102093.63;5051689;28;20040;-87
2022/08/10 07:36:00;;;;;;;8.18;3.17;;;;;;;23.76;46.32;102086.97;5056782;28;20041;-87
2022/08/10 07:38:30;;;;;;;5.63;2.47;;;;;;;24.17;46.42;102096.88;5051146;28;20057;-85
2022/08/10 07:40:59;;;;;;;4.63;2.58;;;;;;;24.47;45.43;102092.91;5046545;28;20044;-85
2022/08/10 07:43:33;;;;;;;2.55;2.05;;;;;;;24.61;45.20;102087.78;5046292;28;20076;-84
2022/08/10 07:46:10;;;;;;;4.45;2.10;;;;;;;24.92;44.53;102095.31;5082255;28;20040;-85
2022/08/10 07:48:45;;;;;;;3.63;2.22;;;;;;;25.26;43.83;102100.88;5057678;28;20045;-85
2022/08/10 07:51:13;;;;;;;6.10;2.08;;;;;;;25.75;43.38;102089.59;5065520;28;20052;-84
2022/08/10 07:53:50;;;;;;;5.43;2.00;;;;;;;26.37;41.67;102084.66;5065821;28;20048;-84
2022/08/10 07:56:23;;;;;;;7.05;1.88;;;;;;;26.91;40.48;102087.13;5065664;28;20048;-85
2022/08/10 07:58:57;;;;;;;6.30;2.10;;;;;;;27.21;39.41;102088.19;5058997;28;20178;-84
2022/08/10 08:01:30;;;;;;;3.55;2.15;;;;;;;27.30;39.72;102093.03;5051722;28;21121;-84
2022/08/10 08:03:59;;;;;;;4.95;2.20;;;;;;;27.70;38.55;102090.75;5026054;28;20053;-83
2022/08/10 08:06:27;;;;;;;6.22;2.97;;;;;;;28.03;38.01;102091.53;5059790;28;20048;-86
2022/08/10 08:08:57;;;;;;;4.15;2.65;;;;;;;28.55;37.33;102082.94;5040130;28;20053;-87
2022/08/10 08:11:27;;;;;;;4.18;2.42;;;;;;;28.97;35.53;102072.25;5055639;28;20147;-87
2022/08/10 08:13:56;;;;;;;4.15;1.98;;;;;;;29.15;35.04;102080.97;5038291;28;20783;-87
2022/08/10 08:16:27;;;;;;;4.80;1.85;;;;;;;29.41;34.32;102091.03;5072424;28;20056;-85
2022/08/10 08:18:57;;;;;;;2.67;1.40;;;;;;;29.32;34.43;102082.59;5036608;28;20083;-86
2022/08/10 08:21:24;;;;;;;2.22;1.98;;;;;;;29.30;34.35;102086.38;5073113;28;20061;-89
2022/08/10 08:23:54;;;;;;;3.28;1.45;;;;;;;29.56;33.98;102084.63;5073573;28;20047;-85
2022/08/10 08:26:23;;;;;;;2.17;1.52;;;;;;;29.88;33.27;102081.59;5057837;28;20036;-86
2022/08/10 08:28:51;;;;;;;3.40;1.83;;;;;;;30.06;32.91;102084.84;5071106;28;20059;-84
2022/08/10 08:31:20;;;;;;;5.35;1.73;;;;;;;30.13;32.59;102080.78;5059950;28;20068;-86
2022/08/10 08:33:49;;;;;;;2.65;1.80;;;;;;;30.47;32.20;102082.97;5082080;28;20076;-84
2022/08/10 08:36:19;;;;;;;2.17;1.70;;;;;;;30.73;31.73;102080.22;5052915;28;20101;-84
2022/08/10 08:38:47;;;;;;;2.80;1.80;;;;;;;30.92;31.50;102075.19;5080298;28;20050;-87
2022/08/10 08:41:19;;;;;;;2.47;1.55;;;;;;;31.17;31.25;102077.00;5073351;28;20135;-85
2022/08/10 08:44:36;;;;;;;3.42;1.52;;;;;;;31.88;30.09;102067.22;5066993;28;20036;-84
2022/08/10 08:47:51;;;;;;;6.97;2.20;;;;;;;32.49;29.31;102064.25;5088098;28;20045;-87
2022/08/10 08:50:47;;;;;;;3.92;1.75;;;;;;;32.81;28.45;102064.38;5074383;28;20055;-89
2022/08/10 08:54:00;;;;;;;3.95;1.85;;;;;;;33.00;27.33;102068.28;5051887;28;20051;-86
2022/08/10 08:56:58;;;;;;;3.40;1.75;;;;;;;33.45;27.50;102065.47;5030984;28;20057;-86
2022/08/10 08:59:50;;;;;;;3.53;1.83;;;;;;;33.88;27.57;102058.22;5077479;28;20048;-85
2022/08/10 09:02:53;;;;;;;2.17;1.67;;;;;;;34.04;25.94;102070.47;5076111;28;20127;-84
2022/08/10 09:06:01;;;;;;;1.73;1.60;;;;;;;33.99;26.52;102073.59;5053141;28;20059;-86
2022/08/10 09:08:44;;;;;;;3.45;1.60;;;;;;;33.95;26.08;102070.28;5073160;28;20083;-89
2022/08/10 09:11:41;;;;;;;3.50;1.20;;;;;;;34.34;25.85;102061.53;5089916;28;20045;-84
2022/08/10 09:14:30;;;;;;;2.67;1.40;;;;;;;34.17;26.17;102065.69;5103787;28;20076;-83
2022/08/10 09:17:07;;;;;;;2.15;2.00;;;;;;;34.26;25.77;102062.16;5069897;28;20499;-84
2022/08/10 09:19:57;;;;;;;2.50;1.70;;;;;;;34.53;25.51;102062.59;5067987;28;20048;-84
2022/08/10 09:22:34;;;;;;;4.40;1.85;;;;;;;35.17;24.60;102052.31;5054846;28;20083;-85
2022/08/10 09:25:21;;;;;;;1.55;1.50;;;;;;;35.21;24.90;102053.75;5065303;28;20037;-86
2022/08/10 09:27:59;;;;;;;5.07;1.80;;;;;;;35.85;24.11;102046.88;5075763;28;20040;-86
2022/08/10 09:30:43;;;;;;;3.65;1.90;;;;;;;36.45;22.96;102042.94;5039779;28;20036;-88
2022/08/10 09:33:34;;;;;;;2.95;1.50;;;;;;;36.33;22.96;102049.59;5040619;28;20503;-87
2022/08/10 09:36:25;;;;;;;3.22;1.60;;;;;;;36.15;22.98;102047.63;5044573;28;20072;-89
2022/08/10 09:39:13;;;;;;;2.17;1.98;;;;;;;35.49;24.01;102043.91;5043552;28;20056;-87
2022/08/10 09:41:54;;;;;;;1.67;1.50;;;;;;;35.86;23.31;102043.13;5068596;28;20138;-89
2022/08/10 09:44:45;;;;;;;7.90;2.00;;;;;;;36.51;22.44;102045.09;5066212;28;20028;-87
2022/08/10 09:47:38;;;;;;;2.20;1.50;;;;;;;36.84;22.23;102040.03;5041779;28;20051;-88
2022/08/10 09:50:25;;;;;;;4.13;1.73;;;;;;;36.80;22.05;102035.03;5033644;28;20131;-88
2022/08/10 09:53:19;;;;;;;1.60;1.33;;;;;;;37.40;21.34;102034.47;5068488;28;20037;-87
2022/08/10 09:56:29;;;;;;;1.30;1.30;;;;;;;38.31;20.50;102035.09;5057071;28;20055;-88
2022/08/10 09:59:26;;;;;;;4.28;1.70;;;;;;;38.67;19.81;102038.50;5060601;28;20052;-83
2022/08/10 10:02:28;;;;;;;2.90;1.65;;;;;;;38.58;19.39;102033.16;5076143;28;20070;-89
2022/08/10 10:05:39;;;;;;;4.68;1.40;;;;;;;38.74;19.63;102026.91;5061631;28;20072;-90
2022/08/10 10:08:28;;;;;;;5.90;2.30;;;;;;;38.58;19.30;102025.81;5069752;28;20044;-92
2022/08/10 10:11:36;;;;;;;4.80;1.60;;;;;;;38.46;19.85;102027.13;5066959;28;20799;-90
2022/08/10 10:14:22;;;;;;;1.65;1.50;;;;;;;38.52;19.06;102024.56;5090035;28;20051;-91
2022/08/10 10:17:09;;;;;;;4.25;1.63;;;;;;;38.13;19.58;102013.28;5061888;28;20051;-87
2022/08/10 10:20:09;;;;;;;2.83;1.67;;;;;;;37.60;20.28;102020.59;5040784;28;20037;-85
2022/08/10 10:22:42;;;;;;;3.88;1.45;;;;;;;38.09;19.35;102023.69;5035143;28;20047;-88
2022/08/10 10:25:28;;;;;;;3.50;1.13;;;;;;;37.94;19.10;102014.38;5066193;28;20053;-86
2022/08/10 10:28:43;;;;;;;1.10;1.10;;;;;;;38.27;18.93;102015.44;5054932;28;20041;-87
2022/08/10 10:31:24;;;;;;;2.95;1.20;;;;;;;39.20;18.24;102002.69;5072614;28;20038;-88
2022/08/10 10:33:59;;;;;;;2.28;1.55;;;;;;;39.68;17.73;101997.38;5070152;28;20036;-90
2022/08/10 10:36:32;;;;;;;3.40;1.05;;;;;;;39.89;17.81;101996.78;5065386;28;20057;-88
2022/08/10 10:39:03;;;;;;;1.50;1.40;;;;;;;40.55;16.95;101987.47;5042156;28;20045;-87
2022/08/10 10:41:44;;;;;;;4.70;1.17;;;;;;;41.04;16.90;101994.53;5041328;28;20075;-89
2022/08/10 10:44:35;;;;;;;2.13;1.27;;;;;;;41.50;16.12;101989.03;5029006;28;20053;-88
2022/08/10 10:47:30;;;;;;;2.00;1.00;;;;;;;41.73;16.20;101988.06;5062539;28;20071;-89
2022/08/10 10:50:18;;;;;;;3.25;1.65;;;;;;;41.53;15.91;101988.63;5041277;28;20605;-88
2022/08/10 10:53:18;;;;;;;1.63;1.10;;;;;;;41.36;16.17;101979.66;5059205;28;20045;-88
2022/08/10 10:56:11;;;;;;;4.32;1.58;;;;;;;41.85;16.12;101986.56;5067898;28;20040;-91
2022/08/10 10:59:02;;;;;;;5.70;1.30;;;;;;;40.90;15.87;101979.69;5051825;28;20272;-90
2022/08/10 11:01:50;;;;;;;1.45;1.35;;;;;;;40.52;16.67;101977.72;5072505;28;20055;-86
2022/08/10 11:04:48;;;;;;;2.22;1.50;;;;;;;40.43;16.42;101967.78;5074876;28;20036;-86
2022/08/10 11:07:23;;;;;;;5.05;1.50;;;;;;;40.10;17.01;101970.72;5066076;28;20074;-87
2022/08/10 11:09:58;;;;;;;2.10;1.10;;;;;;;40.45;16.40;101969.31;5051518;28;20486;-89
2022/08/10 11:12:42;;;;;;;2.42;0.88;;;;;;;40.33;16.56;101970.78;5053441;28;20123;-87
2022/08/10 11:15:29;;;;;;;2.63;1.17;;;;;;;40.84;16.44;101982.13;5057090;28;20044;-86
2022/08/10 11:18:12;;;;;;;2.05;1.20;;;;;;;40.98;15.93;101976.94;5061331;28;20045;-88
2022/08/10 11:21:04;;;;;;;1.08;1.08;;;;;;;40.72;15.67;101979.97;5062935;28;20178;-88
2022/08/10 11:24:13;;;;;;;0.77;0.77;;;;;;;40.98;15.76;101980.50;5072235;28;20051;-86
2022/08/10 11:26:47;;;;;;;0.82;0.63;;;;;;;41.54;15.99;101972.97;5072723;28;20475;-91
2022/08/10 11:29:39;;;;;;;1.45;1.10;;;;;;;42.29;15.21;101977.44;5078096;28;20064;-86
2022/08/10 11:33:00;;;;;;;3.30;0.90;;;;;;;42.17;14.42;101983.63;5071092;28;20124;-90
2022/08/10 11:35:47;;;;;;;2.28;0.85;;;;;;;41.76;15.02;101969.31;5070042;28;20048;-87
2022/08/10 11:38:48;;;;;;;1.38;0.82;;;;;;;41.45;14.87;101981.31;5068997;28;20052;-90
2022/08/10 11:41:55;;;;;;;1.02;0.57;;;;;;;41.44;14.78;101967.78;5080554;28;20036;-88
2022/08/10 11:44:45;;;;;;;1.30;0.65;;;;;;;41.29;14.57;101968.56;5018865;28;20053;-86
2022/08/10 11:47:18;;;;;;;1.65;1.02;;;;;;;41.39;15.13;101959.22;5092009;28;20059;-86
2022/08/10 11:50:06;;;;;;;1.00;0.90;;;;;;;41.98;14.74;101959.28;5085454;28;20044;-87
2022/08/10 11:53:04;;;;;;;1.55;0.80;;;;;;;42.44;14.56;101954.56;5061907;28;20064;-88
2022/08/10 11:55:33;;;;;;;0.73;0.73;;;;;;;43.59;13.73;101958.16;5059374;28;20470;-87
2022/08/10 12:00:56;;;;;;;;;;;;;;;42.33;13.84;101946.81;5089898;28;20092;-86
2022/08/10 12:03:26;;;;;;;0.73;0.70;;;;;;;42.10;14.22;101954.13;5095125;28;20231;-88
2022/08/10 12:05:54;;;;;;;1.17;0.93;;;;;;;42.26;14.42;101946.75;5051966;28;20667;-86
2022/08/10 12:08:24;;;;;;;0.80;0.80;;;;;;;42.27;14.33;101943.78;5068715;28;20052;-88
2022/08/10 12:10:51;;;;;;;2.42;0.70;;;;;;;42.70;14.29;101936.63;5048664;28;20028;-86
2022/08/10 12:13:30;;;;;;;2.55;0.75;;;;;;;42.55;14.00;101936.66;5053690;28;20351;-86
2022/08/10 12:16:05;;;;;;;1.00;0.93;;;;;;;43.15;13.76;101939.16;5081193;28;20044;-87
2022/08/10 12:18:44;;;;;;;3.13;0.77;;;;;;;42.52;13.85;101937.03;5078424;28;20115;-86